sensor_id;sensor_type;location;lat;lon;timestamp;pressure;altitude;pressure_sealevel;temperature;humidity
64835;BME280;51293;59.296;18.006;2023-02-13T00:01:35;101862.78;;;1.86;99.82
64835;BME280;51293;59.296;18.006;2023-02-13T00:04:00;101859.53;;;1.92;99.37
64835;BME280;51293;59.296;18.006;2023-02-13T00:06:26;101859.34;;;2.03;98.84
64835;BME280;51293;59.296;18.006;2023-02-13T00:08:51;101853.72;;;1.96;98.62
64835;BME280;51293;59.296;18.006;2023-02-13T00:11:17;101857.97;;;1.99;98.81
64835;BME280;51293;59.296;18.006;2023-02-13T00:13:42;101861.22;;;1.93;98.96
64835;BME280;51293;59.296;18.006;2023-02-13T00:16:08;101865.56;;;1.94;99.04
64835;BME280;51293;59.296;18.006;2023-02-13T00:18:36;101857.53;;;1.94;98.94
64835;BME280;51293;59.296;18.006;2023-02-13T00:21:03;101854.88;;;1.94;98.94
64835;BME280;51293;59.296;18.006;2023-02-13T00:23:30;101861.00;;;2.04;98.81
64835;BME280;51293;59.296;18.006;2023-02-13T00:25:57;101863.72;;;1.94;98.93
64835;BME280;51293;59.296;18.006;2023-02-13T00:28:23;101866.97;;;1.88;99.26
64835;BME280;51293;59.296;18.006;2023-02-13T00:30:48;101853.63;;;1.88;99.27
64835;BME280;51293;59.296;18.006;2023-02-13T00:33:14;101856.44;;;1.87;99.37
64835;BME280;51293;59.296;18.006;2023-02-13T00:35:39;101853.13;;;1.75;99.88
64835;BME280;51293;59.296;18.006;2023-02-13T00:38:05;101844.97;;;1.77;100.00
64835;BME280;51293;59.296;18.006;2023-02-13T00:40:30;101853.41;;;1.72;100.00
64835;BME280;51293;59.296;18.006;2023-02-13T00:42:56;101844.13;;;1.76;100.00
64835;BME280;51293;59.296;18.006;2023-02-13T00:45:21;101828.81;;;1.68;100.00
64835;BME280;51293;59.296;18.006;2023-02-13T00:47:46;101838.22;;;1.73;100.00
64835;BME280;51293;59.296;18.006;2023-02-13T00:50:12;101829.53;;;1.61;100.00
64835;BME280;51293;59.296;18.006;2023-02-13T00:52:37;101828.41;;;1.63;100.00
64835;BME280;51293;59.296;18.006;2023-02-13T00:55:03;101827.19;;;1.58;100.00
64835;BME280;51293;59.296;18.006;2023-02-13T00:57:29;101825.63;;;1.55;100.00
64835;BME280;51293;59.296;18.006;2023-02-13T00:59:56;101822.38;;;1.61;100.00
64835;BME280;51293;59.296;18.006;2023-02-13T01:02:21;101826.56;;;1.64;100.00
64835;BME280;51293;59.296;18.006;2023-02-13T01:04:46;101815.47;;;1.68;100.00
64835;BME280;51293;59.296;18.006;2023-02-13T01:07:13;101809.19;;;1.60;100.00
64835;BME280;51293;59.296;18.006;2023-02-13T01:09:38;101814.38;;;1.61;100.00
64835;BME280;51293;59.296;18.006;2023-02-13T01:12:04;101816.03;;;1.62;100.00
64835;BME280;51293;59.296;18.006;2023-02-13T01:14:29;101822.94;;;1.55;100.00
64835;BME280;51293;59.296;18.006;2023-02-13T01:16:55;101817.72;;;1.63;100.00
64835;BME280;51293;59.296;18.006;2023-02-13T01:19:20;101816.91;;;1.53;100.00
64835;BME280;51293;59.296;18.006;2023-02-13T01:21:45;101819.59;;;1.53;100.00
64835;BME280;51293;59.296;18.006;2023-02-13T01:24:11;101811.16;;;1.48;100.00
64835;BME280;51293;59.296;18.006;2023-02-13T01:26:36;101808.94;;;1.44;100.00
64835;BME280;51293;59.296;18.006;2023-02-13T01:29:01;101809.91;;;1.52;100.00
64835;BME280;51293;59.296;18.006;2023-02-13T01:31:27;101814.56;;;1.50;100.00
64835;BME280;51293;59.296;18.006;2023-02-13T01:33:55;101803.03;;;1.40;100.00
64835;BME280;51293;59.296;18.006;2023-02-13T01:36:22;101806.81;;;1.47;100.00
64835;BME280;51293;59.296;18.006;2023-02-13T01:38:47;101807.94;;;1.45;100.00
64835;BME280;51293;59.296;18.006;2023-02-13T01:41:12;101800.25;;;1.42;100.00
64835;BME280;51293;59.296;18.006;2023-02-13T01:46:15;101811.72;;;1.52;100.00
64835;BME280;51293;59.296;18.006;2023-02-13T01:48:42;101798.66;;;1.58;100.00
64835;BME280;51293;59.296;18.006;2023-02-13T01:51:12;101800.84;;;1.63;100.00
64835;BME280;51293;59.296;18.006;2023-02-13T01:53:44;101799.91;;;1.54;100.00
64835;BME280;51293;59.296;18.006;2023-02-13T01:56:18;101793.19;;;1.50;100.00
64835;BME280;51293;59.296;18.006;2023-02-13T01:58:45;101788.53;;;1.52;100.00
64835;BME280;51293;59.296;18.006;2023-02-13T02:01:11;101784.56;;;1.56;100.00
64835;BME280;51293;59.296;18.006;2023-02-13T02:03:42;101795.56;;;1.53;100.00
64835;BME280;51293;59.296;18.006;2023-02-13T02:06:15;101795.97;;;1.58;100.00
64835;BME280;51293;59.296;18.006;2023-02-13T02:08:42;101798.38;;;1.52;100.00
64835;BME280;51293;59.296;18.006;2023-02-13T02:11:16;101802.56;;;1.54;100.00
64835;BME280;51293;59.296;18.006;2023-02-13T02:13:45;101798.34;;;1.61;100.00
64835;BME280;51293;59.296;18.006;2023-02-13T02:16:10;101801.31;;;1.58;100.00
64835;BME280;51293;59.296;18.006;2023-02-13T02:18:36;101800.59;;;1.56;100.00
64835;BME280;51293;59.296;18.006;2023-02-13T02:28:58;101792.88;;;1.53;100.00
64835;BME280;51293;59.296;18.006;2023-02-13T02:34:39;101793.19;;;1.50;100.00
64835;BME280;51293;59.296;18.006;2023-02-13T02:37:22;101785.19;;;1.50;100.00
64835;BME280;51293;59.296;18.006;2023-02-13T02:45:16;101804.56;;;1.52;100.00
64835;BME280;51293;59.296;18.006;2023-02-13T02:47:58;101793.88;;;1.52;100.00
64835;BME280;51293;59.296;18.006;2023-02-13T02:53:39;101795.84;;;1.50;100.00
64835;BME280;51293;59.296;18.006;2023-02-13T02:56:19;101796.81;;;1.59;100.00
64835;BME280;51293;59.296;18.006;2023-02-13T02:59:01;101799.72;;;1.65;100.00
64835;BME280;51293;59.296;18.006;2023-02-13T03:01:47;101798.88;;;1.65;100.00
64835;BME280;51293;59.296;18.006;2023-02-13T03:04:58;101804.09;;;1.66;100.00
64835;BME280;51293;59.296;18.006;2023-02-13T03:07:43;101796.88;;;1.77;99.78
64835;BME280;51293;59.296;18.006;2023-02-13T03:10:14;101788.88;;;1.77;99.77
64835;BME280;51293;59.296;18.006;2023-02-13T03:13:05;101794.34;;;1.75;99.66
64835;BME280;51293;59.296;18.006;2023-02-13T03:15:47;101792.69;;;1.74;99.87
64835;BME280;51293;59.296;18.006;2023-02-13T03:18:37;101787.19;;;1.76;99.63
64835;BME280;51293;59.296;18.006;2023-02-13T03:24:35;101791.06;;;1.81;99.57
64835;BME280;51293;59.296;18.006;2023-02-13T03:27:16;101787.72;;;1.79;99.70
64835;BME280;51293;59.296;18.006;2023-02-13T03:30:35;101783.09;;;1.72;99.79
64835;BME280;51293;59.296;18.006;2023-02-13T03:35:56;101785.41;;;1.66;100.00
64835;BME280;51293;59.296;18.006;2023-02-13T03:41:25;101795.38;;;1.64;99.95
64835;BME280;51293;59.296;18.006;2023-02-13T03:44:13;101788.19;;;1.75;99.59
64835;BME280;51293;59.296;18.006;2023-02-13T03:46:44;101798.16;;;1.73;99.72
64835;BME280;51293;59.296;18.006;2023-02-13T03:49:19;101791.16;;;1.62;100.00
64835;BME280;51293;59.296;18.006;2023-02-13T03:54:56;101779.78;;;1.60;100.00
64835;BME280;51293;59.296;18.006;2023-02-13T03:57:43;101778.66;;;1.62;100.00
64835;BME280;51293;59.296;18.006;2023-02-13T04:00:33;101779.22;;;1.56;100.00
64835;BME280;51293;59.296;18.006;2023-02-13T04:03:10;101771.53;;;1.53;100.00
64835;BME280;51293;59.296;18.006;2023-02-13T04:05:44;101768.69;;;1.55;100.00
64835;BME280;51293;59.296;18.006;2023-02-13T04:08:12;101774.50;;;1.50;100.00
64835;BME280;51293;59.296;18.006;2023-02-13T04:10:50;101770.53;;;1.54;100.00
64835;BME280;51293;59.296;18.006;2023-02-13T04:13:38;101768.16;;;1.51;100.00
64835;BME280;51293;59.296;18.006;2023-02-13T04:16:12;101772.66;;;1.51;100.00
64835;BME280;51293;59.296;18.006;2023-02-13T04:18:41;101770.56;;;1.45;100.00
64835;BME280;51293;59.296;18.006;2023-02-13T04:21:07;101769.69;;;1.54;100.00
64835;BME280;51293;59.296;18.006;2023-02-13T04:23:33;101759.56;;;1.57;100.00
64835;BME280;51293;59.296;18.006;2023-02-13T04:26:06;101780.63;;;1.60;100.00
64835;BME280;51293;59.296;18.006;2023-02-13T04:28:32;101778.66;;;1.62;100.00
64835;BME280;51293;59.296;18.006;2023-02-13T04:30:57;101774.31;;;1.61;100.00
64835;BME280;51293;59.296;18.006;2023-02-13T04:33:23;101767.59;;;1.57;100.00
64835;BME280;51293;59.296;18.006;2023-02-13T04:35:48;101770.50;;;1.64;100.00
64835;BME280;51293;59.296;18.006;2023-02-13T04:38:13;101772.63;;;1.60;100.00
64835;BME280;51293;59.296;18.006;2023-02-13T04:40:39;101768.97;;;1.61;100.00
64835;BME280;51293;59.296;18.006;2023-02-13T04:43:04;101767.44;;;1.59;100.00
64835;BME280;51293;59.296;18.006;2023-02-13T04:45:30;101771.06;;;1.67;99.80
64835;BME280;51293;59.296;18.006;2023-02-13T04:47:56;101756.97;;;1.65;99.79
64835;BME280;51293;59.296;18.006;2023-02-13T04:50:22;101765.00;;;1.65;99.59
64835;BME280;51293;59.296;18.006;2023-02-13T04:52:52;101773.00;;;1.65;99.70
64835;BME280;51293;59.296;18.006;2023-02-13T04:55:18;101772.16;;;1.75;99.49
64835;BME280;51293;59.296;18.006;2023-02-13T04:57:44;101773.25;;;1.72;99.50
64835;BME280;51293;59.296;18.006;2023-02-13T05:00:10;101762.06;;;1.68;99.89
64835;BME280;51293;59.296;18.006;2023-02-13T05:02:36;101766.41;;;1.69;99.44
64835;BME280;51293;59.296;18.006;2023-02-13T05:05:01;101773.31;;;1.62;99.82
64835;BME280;51293;59.296;18.006;2023-02-13T05:07:26;101766.00;;;1.64;99.53
64835;BME280;51293;59.296;18.006;2023-02-13T05:09:52;101762.19;;;1.67;99.65
64835;BME280;51293;59.296;18.006;2023-02-13T05:12:17;101766.72;;;1.66;99.58
64835;BME280;51293;59.296;18.006;2023-02-13T05:14:43;101769.81;;;1.62;99.64
64835;BME280;51293;59.296;18.006;2023-02-13T05:17:08;101766.03;;;1.55;100.00
64835;BME280;51293;59.296;18.006;2023-02-13T05:19:33;101770.34;;;1.65;99.37
64835;BME280;51293;59.296;18.006;2023-02-13T05:21:59;101768.66;;;1.64;99.71
64835;BME280;51293;59.296;18.006;2023-02-13T05:24:43;101772.63;;;1.60;99.92
64835;BME280;51293;59.296;18.006;2023-02-13T05:27:08;101775.59;;;1.57;100.00
64835;BME280;51293;59.296;18.006;2023-02-13T05:29:33;101769.97;;;1.60;100.00
64835;BME280;51293;59.296;18.006;2023-02-13T05:31:59;101779.53;;;1.53;100.00
64835;BME280;51293;59.296;18.006;2023-02-13T05:34:26;101785.97;;;1.60;99.98
64835;BME280;51293;59.296;18.006;2023-02-13T05:36:52;101786.97;;;1.59;100.00
64835;BME280;51293;59.296;18.006;2023-02-13T05:39:18;101785.41;;;1.57;100.00
64835;BME280;51293;59.296;18.006;2023-02-13T05:41:44;101794.97;;;1.59;99.96
64835;BME280;51293;59.296;18.006;2023-02-13T05:44:11;101799.03;;;1.63;99.74
64835;BME280;51293;59.296;18.006;2023-02-13T05:46:38;101805.50;;;1.61;99.89
64835;BME280;51293;59.296;18.006;2023-02-13T05:49:04;101806.25;;;1.53;100.00
64835;BME280;51293;59.296;18.006;2023-02-13T05:51:30;101801.44;;;1.57;100.00
64835;BME280;51293;59.296;18.006;2023-02-13T05:53:56;101807.66;;;1.57;100.00
64835;BME280;51293;59.296;18.006;2023-02-13T05:56:21;101805.09;;;1.56;100.00
64835;BME280;51293;59.296;18.006;2023-02-13T05:58:50;101811.56;;;1.53;100.00
64835;BME280;51293;59.296;18.006;2023-02-13T06:01:17;101813.72;;;1.50;100.00
64835;BME280;51293;59.296;18.006;2023-02-13T06:03:42;101825.50;;;1.47;100.00
64835;BME280;51293;59.296;18.006;2023-02-13T06:06:07;101834.50;;;1.46;100.00
64835;BME280;51293;59.296;18.006;2023-02-13T06:08:33;101840.13;;;1.53;100.00
64835;BME280;51293;59.296;18.006;2023-02-13T06:10:58;101829.31;;;1.45;100.00
64835;BME280;51293;59.296;18.006;2023-02-13T06:13:24;101827.63;;;1.44;100.00
64835;BME280;51293;59.296;18.006;2023-02-13T06:15:49;101831.44;;;1.41;100.00
64835;BME280;51293;59.296;18.006;2023-02-13T06:18:15;101830.44;;;1.42;100.00
64835;BME280;51293;59.296;18.006;2023-02-13T06:20:40;101833.53;;;1.37;100.00
64835;BME280;51293;59.296;18.006;2023-02-13T06:23:06;101848.03;;;1.35;100.00
64835;BME280;51293;59.296;18.006;2023-02-13T06:25:33;101863.59;;;1.39;100.00
64835;BME280;51293;59.296;18.006;2023-02-13T06:27:59;101862.22;;;1.35;100.00
64835;BME280;51293;59.296;18.006;2023-02-13T06:30:24;101867.13;;;1.30;100.00
64835;BME280;51293;59.296;18.006;2023-02-13T06:32:49;101870.94;;;1.28;100.00
64835;BME280;51293;59.296;18.006;2023-02-13T06:35:15;101858.41;;;1.38;100.00
64835;BME280;51293;59.296;18.006;2023-02-13T06:37:41;101862.50;;;1.23;100.00
64835;BME280;51293;59.296;18.006;2023-02-13T06:40:11;101848.72;;;1.27;100.00
64835;BME280;51293;59.296;18.006;2023-02-13T06:42:37;101840.31;;;1.22;100.00
64835;BME280;51293;59.296;18.006;2023-02-13T06:45:03;101835.53;;;1.26;100.00
64835;BME280;51293;59.296;18.006;2023-02-13T06:47:29;101838.34;;;1.24;100.00
64835;BME280;51293;59.296;18.006;2023-02-13T06:49:54;101841.41;;;1.29;100.00
64835;BME280;51293;59.296;18.006;2023-02-13T06:52:19;101842.13;;;1.22;100.00
64835;BME280;51293;59.296;18.006;2023-02-13T06:54:45;101832.28;;;1.22;100.00
64835;BME280;51293;59.296;18.006;2023-02-13T06:57:10;101834.41;;;1.28;100.00
64835;BME280;51293;59.296;18.006;2023-02-13T06:59:36;101843.69;;;1.24;100.00
64835;BME280;51293;59.296;18.006;2023-02-13T07:02:01;101840.72;;;1.27;100.00
64835;BME280;51293;59.296;18.006;2023-02-13T07:04:27;101850.41;;;1.28;100.00
64835;BME280;51293;59.296;18.006;2023-02-13T07:06:55;101850.00;;;1.33;100.00
64835;BME280;51293;59.296;18.006;2023-02-13T07:09:22;101853.09;;;1.28;100.00
64835;BME280;51293;59.296;18.006;2023-02-13T07:11:47;101857.72;;;1.26;100.00
64835;BME280;51293;59.296;18.006;2023-02-13T07:14:13;101853.78;;;1.21;100.00
64835;BME280;51293;59.296;18.006;2023-02-13T07:16:38;101846.22;;;1.26;100.00
64835;BME280;51293;59.296;18.006;2023-02-13T07:19:04;101851.81;;;1.23;100.00
64835;BME280;51293;59.296;18.006;2023-02-13T07:21:29;101849.72;;;1.26;100.00
64835;BME280;51293;59.296;18.006;2023-02-13T07:23:55;101846.75;;;1.29;100.00
64835;BME280;51293;59.296;18.006;2023-02-13T07:26:20;101845.38;;;1.25;100.00
64835;BME280;51293;59.296;18.006;2023-02-13T07:28:45;101838.75;;;1.29;100.00
64835;BME280;51293;59.296;18.006;2023-02-13T07:31:11;101830.75;;;1.29;100.00
64835;BME280;51293;59.296;18.006;2023-02-13T07:33:36;101834.41;;;1.28;100.00
64835;BME280;51293;59.296;18.006;2023-02-13T07:36:03;101848.59;;;1.29;100.00
64835;BME280;51293;59.296;18.006;2023-02-13T07:38:29;101846.91;;;1.28;100.00
64835;BME280;51293;59.296;18.006;2023-02-13T07:40:59;101856.28;;;1.32;100.00
64835;BME280;51293;59.296;18.006;2023-02-13T07:43:24;101838.03;;;1.37;100.00
64835;BME280;51293;59.296;18.006;2023-02-13T07:45:50;101851.81;;;1.42;100.00
64835;BME280;51293;59.296;18.006;2023-02-13T07:48:22;101863.59;;;1.49;100.00
64835;BME280;51293;59.296;18.006;2023-02-13T07:50:48;101846.72;;;1.58;100.00
64835;BME280;51293;59.296;18.006;2023-02-13T07:53:14;101840.75;;;1.74;99.26
64835;BME280;51293;59.296;18.006;2023-02-13T07:55:39;101842.00;;;1.80;98.29
64835;BME280;51293;59.296;18.006;2023-02-13T07:58:05;101849.97;;;1.89;97.58
64835;BME280;51293;59.296;18.006;2023-02-13T08:00:30;101843.31;;;2.03;96.52
64835;BME280;51293;59.296;18.006;2023-02-13T08:02:59;101855.50;;;2.06;96.62
64835;BME280;51293;59.296;18.006;2023-02-13T08:05:25;101858.53;;;2.20;95.36
64835;BME280;51293;59.296;18.006;2023-02-13T08:07:51;101860.78;;;2.25;95.21
64835;BME280;51293;59.296;18.006;2023-02-13T08:10:16;101868.44;;;2.38;94.28
64835;BME280;51293;59.296;18.006;2023-02-13T08:13:00;101873.97;;;2.54;93.00
64835;BME280;51293;59.296;18.006;2023-02-13T08:15:26;101873.13;;;2.53;93.43
64835;BME280;51293;59.296;18.006;2023-02-13T08:17:51;101885.09;;;2.59;92.72
64835;BME280;51293;59.296;18.006;2023-02-13T08:20:17;101898.81;;;2.64;92.29
64835;BME280;51293;59.296;18.006;2023-02-13T08:22:42;101903.97;;;2.58;92.50
64835;BME280;51293;59.296;18.006;2023-02-13T08:25:08;101907.25;;;2.69;91.99
64835;BME280;51293;59.296;18.006;2023-02-13T08:27:33;101898.53;;;2.67;91.93
64835;BME280;51293;59.296;18.006;2023-02-13T08:29:59;101904.50;;;2.79;91.64
64835;BME280;51293;59.296;18.006;2023-02-13T08:32:25;101909.28;;;2.85;90.79
64835;BME280;51293;59.296;18.006;2023-02-13T08:34:51;101911.56;;;2.98;90.56
64835;BME280;51293;59.296;18.006;2023-02-13T08:37:16;101918.06;;;2.95;90.30
64835;BME280;51293;59.296;18.006;2023-02-13T08:39:42;101917.22;;;2.95;90.01
64835;BME280;51293;59.296;18.006;2023-02-13T08:42:08;101928.09;;;3.11;89.66
64835;BME280;51293;59.296;18.006;2023-02-13T08:44:34;101928.16;;;3.19;89.17
64835;BME280;51293;59.296;18.006;2023-02-13T08:47:00;101921.66;;;3.22;88.85
64835;BME280;51293;59.296;18.006;2023-02-13T08:49:29;101939.72;;;3.37;87.81
64835;BME280;51293;59.296;18.006;2023-02-13T08:51:54;101931.47;;;3.49;87.21
64835;BME280;51293;59.296;18.006;2023-02-13T08:54:20;101942.25;;;3.57;86.32
64835;BME280;51293;59.296;18.006;2023-02-13T08:56:45;101937.63;;;3.67;85.93
64835;BME280;51293;59.296;18.006;2023-02-13T08:59:11;101944.94;;;3.83;85.27
64835;BME280;51293;59.296;18.006;2023-02-13T09:01:36;101947.25;;;4.04;83.88
64835;BME280;51293;59.296;18.006;2023-02-13T09:04:01;101937.69;;;4.01;83.50
64835;BME280;51293;59.296;18.006;2023-02-13T09:06:27;101940.66;;;4.24;83.07
64835;BME280;51293;59.296;18.006;2023-02-13T09:08:52;101945.13;;;4.41;82.00
64835;BME280;51293;59.296;18.006;2023-02-13T09:11:18;101939.75;;;4.41;81.37
64835;BME280;51293;59.296;18.006;2023-02-13T09:13:47;101945.56;;;4.37;81.26
64835;BME280;51293;59.296;18.006;2023-02-13T09:16:12;101933.34;;;4.34;81.06
64835;BME280;51293;59.296;18.006;2023-02-13T09:18:38;101933.81;;;4.64;80.40
64835;BME280;51293;59.296;18.006;2023-02-13T09:21:06;101932.88;;;4.89;79.17
64835;BME280;51293;59.296;18.006;2023-02-13T09:23:36;101924.16;;;5.03;78.28
64835;BME280;51293;59.296;18.006;2023-02-13T09:26:05;101923.47;;;4.93;78.18
64835;BME280;51293;59.296;18.006;2023-02-13T09:28:32;101935.25;;;5.00;77.87
64835;BME280;51293;59.296;18.006;2023-02-13T09:30:57;101929.38;;;4.97;77.96
64835;BME280;51293;59.296;18.006;2023-02-13T09:33:24;101926.94;;;4.69;78.93
64835;BME280;51293;59.296;18.006;2023-02-13T09:35:50;101935.69;;;4.88;78.71
64835;BME280;51293;59.296;18.006;2023-02-13T09:38:16;101930.91;;;5.07;77.81
64835;BME280;51293;59.296;18.006;2023-02-13T09:40:56;101934.25;;;5.10;77.61
64835;BME280;51293;59.296;18.006;2023-02-13T09:43:28;101928.53;;;4.88;77.72
64835;BME280;51293;59.296;18.006;2023-02-13T09:45:57;101938.03;;;4.74;78.55
64835;BME280;51293;59.296;18.006;2023-02-13T09:48:28;101922.13;;;4.81;78.42
64835;BME280;51293;59.296;18.006;2023-02-13T09:50:54;101932.06;;;4.55;79.46
64835;BME280;51293;59.296;18.006;2023-02-13T09:53:21;101924.03;;;4.55;79.74
64835;BME280;51293;59.296;18.006;2023-02-13T09:58:48;101929.22;;;4.48;80.38
64835;BME280;51293;59.296;18.006;2023-02-13T10:01:31;101925.84;;;4.46;80.02
64835;BME280;51293;59.296;18.006;2023-02-13T10:04:10;101921.56;;;4.27;80.43
64835;BME280;51293;59.296;18.006;2023-02-13T10:06:43;101926.09;;;4.27;81.32
64835;BME280;51293;59.296;18.006;2023-02-13T10:17:32;101951.47;;;4.40;80.33
64835;BME280;51293;59.296;18.006;2023-02-13T10:20:02;101938.28;;;4.47;79.78
64835;BME280;51293;59.296;18.006;2023-02-13T10:22:43;101953.88;;;4.51;79.60
64835;BME280;51293;59.296;18.006;2023-02-13T10:25:21;101946.81;;;4.50;79.81
64835;BME280;51293;59.296;18.006;2023-02-13T10:27:54;101953.41;;;4.56;79.55
64835;BME280;51293;59.296;18.006;2023-02-13T10:30:27;101959.06;;;4.53;79.77
64835;BME280;51293;59.296;18.006;2023-02-13T10:32:59;101954.53;;;4.54;79.24
64835;BME280;51293;59.296;18.006;2023-02-13T10:38:28;101958.94;;;4.63;78.98
64835;BME280;51293;59.296;18.006;2023-02-13T10:41:04;101965.72;;;4.75;78.31
64835;BME280;51293;59.296;18.006;2023-02-13T10:43:38;101971.41;;;4.72;78.49
64835;BME280;51293;59.296;18.006;2023-02-13T10:46:21;101973.75;;;4.75;77.94
64835;BME280;51293;59.296;18.006;2023-02-13T10:52:09;101977.81;;;4.87;78.06
64835;BME280;51293;59.296;18.006;2023-02-13T10:57:23;101963.28;;;4.98;77.89
64835;BME280;51293;59.296;18.006;2023-02-13T11:02:34;101979.72;;;5.11;76.69
64835;BME280;51293;59.296;18.006;2023-02-13T11:05:12;101983.63;;;5.17;75.97
64835;BME280;51293;59.296;18.006;2023-02-13T11:07:38;101980.94;;;5.25;75.83
64835;BME280;51293;59.296;18.006;2023-02-13T11:10:16;101982.28;;;5.21;75.53
64835;BME280;51293;59.296;18.006;2023-02-13T11:12:42;101980.28;;;5.23;75.30
64835;BME280;51293;59.296;18.006;2023-02-13T11:15:23;101971.03;;;5.25;75.06
64835;BME280;51293;59.296;18.006;2023-02-13T11:17:51;101985.47;;;5.24;75.02
64835;BME280;51293;59.296;18.006;2023-02-13T11:20:33;101993.69;;;5.15;75.38
64835;BME280;51293;59.296;18.006;2023-02-13T11:28:28;102013.16;;;5.17;75.25
64835;BME280;51293;59.296;18.006;2023-02-13T11:31:11;102003.25;;;5.09;75.80
64835;BME280;51293;59.296;18.006;2023-02-13T11:33:37;102001.06;;;5.13;75.09
64835;BME280;51293;59.296;18.006;2023-02-13T11:36:06;101997.22;;;5.15;75.37
64835;BME280;51293;59.296;18.006;2023-02-13T11:38:32;102004.63;;;5.21;75.25
64835;BME280;51293;59.296;18.006;2023-02-13T11:41:10;102000.78;;;5.40;74.50
64835;BME280;51293;59.296;18.006;2023-02-13T11:43:43;101994.91;;;5.45;74.18
64835;BME280;51293;59.296;18.006;2023-02-13T11:46:18;101997.28;;;5.48;73.91
64835;BME280;51293;59.296;18.006;2023-02-13T11:49:02;101994.06;;;5.52;73.95
64835;BME280;51293;59.296;18.006;2023-02-13T11:51:48;101997.59;;;5.53;73.57
64835;BME280;51293;59.296;18.006;2023-02-13T11:56:57;102017.44;;;5.76;72.56
64835;BME280;51293;59.296;18.006;2023-02-13T11:59:25;102015.59;;;5.77;72.04
64835;BME280;51293;59.296;18.006;2023-02-13T12:02:21;102020.31;;;5.83;71.95
64835;BME280;51293;59.296;18.006;2023-02-13T12:04:50;102024.72;;;5.92;72.32
64835;BME280;51293;59.296;18.006;2023-02-13T12:07:22;102030.06;;;5.84;72.45
64835;BME280;51293;59.296;18.006;2023-02-13T12:12:44;102018.00;;;5.96;71.46
64835;BME280;51293;59.296;18.006;2023-02-13T12:15:26;102023.38;;;5.96;71.46
64835;BME280;51293;59.296;18.006;2023-02-13T12:18:02;102029.06;;;5.93;71.69
64835;BME280;51293;59.296;18.006;2023-02-13T12:20:36;102024.72;;;6.00;71.00
64835;BME280;51293;59.296;18.006;2023-02-13T12:26:33;102033.78;;;6.15;71.31
64835;BME280;51293;59.296;18.006;2023-02-13T12:29:31;102026.16;;;6.43;70.45
64835;BME280;51293;59.296;18.006;2023-02-13T12:32:15;102030.50;;;6.44;69.61
64835;BME280;51293;59.296;18.006;2023-02-13T12:37:59;102042.13;;;6.45;70.05
64835;BME280;51293;59.296;18.006;2023-02-13T12:40:42;102041.47;;;6.43;69.11
64835;BME280;51293;59.296;18.006;2023-02-13T12:45:56;102047.19;;;6.48;69.80
64835;BME280;51293;59.296;18.006;2023-02-13T12:51:02;102054.72;;;6.53;69.50
64835;BME280;51293;59.296;18.006;2023-02-13T12:53:44;102054.69;;;6.61;68.86
64835;BME280;51293;59.296;18.006;2023-02-13T12:59:04;102060.94;;;6.61;69.23
64835;BME280;51293;59.296;18.006;2023-02-13T13:04:46;102065.59;;;6.75;68.45
64835;BME280;51293;59.296;18.006;2023-02-13T13:07:35;102069.97;;;6.76;68.95
64835;BME280;51293;59.296;18.006;2023-02-13T13:21:07;102069.28;;;6.83;67.89
64835;BME280;51293;59.296;18.006;2023-02-13T13:26:19;102068.47;;;6.74;67.31
64835;BME280;51293;59.296;18.006;2023-02-13T13:28:50;102071.66;;;6.78;67.41
64835;BME280;51293;59.296;18.006;2023-02-13T13:31:18;102077.25;;;6.68;68.22
64835;BME280;51293;59.296;18.006;2023-02-13T13:33:45;102080.28;;;6.73;67.81
64835;BME280;51293;59.296;18.006;2023-02-13T13:36:46;102084.47;;;6.75;67.93
64835;BME280;51293;59.296;18.006;2023-02-13T13:41:45;102092.34;;;6.77;67.25
64835;BME280;51293;59.296;18.006;2023-02-13T13:49:59;102089.31;;;6.88;68.18
64835;BME280;51293;59.296;18.006;2023-02-13T13:54:57;102093.53;;;6.83;67.46
64835;BME280;51293;59.296;18.006;2023-02-13T14:02:51;102091.84;;;6.82;67.33
64835;BME280;51293;59.296;18.006;2023-02-13T14:05:56;102099.91;;;6.90;66.47
64835;BME280;51293;59.296;18.006;2023-02-13T14:09:01;102098.53;;;6.94;67.00
64835;BME280;51293;59.296;18.006;2023-02-13T14:13:54;102112.03;;;6.86;67.04
64835;BME280;51293;59.296;18.006;2023-02-13T14:21:47;102105.22;;;6.51;67.75
64835;BME280;51293;59.296;18.006;2023-02-13T14:24:12;102116.81;;;6.51;68.24
64835;BME280;51293;59.296;18.006;2023-02-13T14:26:39;102111.25;;;6.36;68.68
64835;BME280;51293;59.296;18.006;2023-02-13T14:32:01;102116.16;;;6.33;68.69
64835;BME280;51293;59.296;18.006;2023-02-13T14:34:30;102099.66;;;6.28;68.80
64835;BME280;51293;59.296;18.006;2023-02-13T14:37:21;102099.66;;;6.19;69.17
64835;BME280;51293;59.296;18.006;2023-02-13T14:45:54;102121.53;;;6.08;69.18
64835;BME280;51293;59.296;18.006;2023-02-13T14:48:27;102103.88;;;6.06;69.57
64835;BME280;51293;59.296;18.006;2023-02-13T14:50:54;102113.44;;;5.92;69.93
64835;BME280;51293;59.296;18.006;2023-02-13T14:53:29;102118.84;;;5.92;69.93
64835;BME280;51293;59.296;18.006;2023-02-13T14:56:05;102125.22;;;5.91;69.86
64835;BME280;51293;59.296;18.006;2023-02-13T14:58:35;102120.81;;;5.90;69.96
64835;BME280;51293;59.296;18.006;2023-02-13T15:01:05;102107.84;;;5.85;70.10
64835;BME280;51293;59.296;18.006;2023-02-13T15:03:45;102116.91;;;5.76;70.44
64835;BME280;51293;59.296;18.006;2023-02-13T15:06:38;102113.56;;;5.74;70.45
64835;BME280;51293;59.296;18.006;2023-02-13T15:09:59;102121.78;;;5.64;70.74
64835;BME280;51293;59.296;18.006;2023-02-13T15:11:59;102121.41;;;5.59;71.22
64835;BME280;51293;59.296;18.006;2023-02-13T15:14:31;102131.66;;;5.56;71.45